Time;durP1;ratioP1;P1;durP2;ratioP2;P2;SDS_P1;SDS_P2;PMS_P1;PMS_P2;Temp;Humidity;BMP_temperature;BMP_pressure;BME280_temperature;BME280_humidity;BME280_pressure;Samples;Min_cycle;Max_cycle;Signal;HPM_P1;HPM_P2
2022/04/04 00:02:14;;;;;;;14.73;6.70;;;;;;;0.64;84.85;101833.31;5035872;28;20037;-83
2022/04/04 00:04:40;;;;;;;11.47;6.63;;;;;;;0.58;84.76;101829.31;5036311;28;20033;-87
2022/04/04 00:07:05;;;;;;;12.77;7.20;;;;;;;0.68;84.80;101845.47;5035962;28;20794;-86
2022/04/04 00:09:31;;;;;;;11.87;6.90;;;;;;;0.74;85.28;101844.13;5034356;28;20473;-88
2022/04/04 00:11:56;;;;;;;11.73;7.47;;;;;;;0.57;85.13;101813.44;5036884;28;20032;-84
2022/04/04 00:14:22;;;;;;;11.97;6.63;;;;;;;0.61;84.89;101828.22;5036998;28;20036;-86
2022/04/04 00:16:47;;;;;;;11.10;6.87;;;;;;;0.57;85.31;101816.13;5037410;28;20037;-85
2022/04/04 00:19:14;;;;;;;10.47;6.77;;;;;;;0.46;85.00;101798.28;5036968;28;20048;-84
2022/04/04 00:21:40;;;;;;;12.90;6.83;;;;;;;0.65;85.23;101824.34;5051583;28;20780;-82
2022/04/04 00:24:06;;;;;;;11.10;7.00;;;;;;;0.54;85.05;101805.69;5035510;28;20299;-89
2022/04/04 00:26:33;;;;;;;12.13;7.07;;;;;;;0.57;85.10;101813.44;5034462;28;20435;-85
2022/04/04 00:28:58;;;;;;;11.90;7.70;;;;;;;0.46;85.15;101788.50;5037368;28;20288;-83
2022/04/04 00:31:23;;;;;;;11.80;7.37;;;;;;;0.40;85.15;101780.13;5037189;28;20048;-85
2022/04/04 00:33:49;;;;;;;11.43;7.40;;;;;;;0.44;85.07;101779.75;5035586;28;20036;-85
2022/04/04 00:36:15;;;;;;;13.30;7.90;;;;;;;0.49;85.02;101790.91;5036729;28;20118;-85
2022/04/04 00:38:40;;;;;;;13.57;8.20;;;;;;;0.40;85.02;101777.47;5035316;28;20045;-83
2022/04/04 00:41:10;;;;;;;12.93;8.40;;;;;;;0.43;85.34;101772.72;5037047;28;20037;-82
2022/04/04 00:43:36;;;;;;;13.63;8.30;;;;;;;0.34;84.92;101765.47;5037001;28;20095;-86
2022/04/04 00:46:02;;;;;;;15.07;8.83;;;;;;;0.44;85.25;101777.09;5036745;28;20297;-88
2022/04/04 00:48:27;;;;;;;14.50;9.27;;;;;;;0.28;85.36;101748.13;5036381;28;20040;-85
2022/04/04 00:50:54;;;;;;;16.03;9.63;;;;;;;0.37;85.32;101767.03;5037113;28;20229;-86
2022/04/04 00:53:20;;;;;;;15.13;9.40;;;;;;;0.37;85.40;101762.56;5036327;28;20359;-82
2022/04/04 00:55:45;;;;;;;14.83;9.60;;;;;;;0.36;85.46;101758.19;5035761;28;20294;-81
2022/04/04 00:58:13;;;;;;;17.60;10.50;;;;;;;0.33;85.04;101747.78;5034631;28;20775;-83
2022/04/04 01:00:40;;;;;;;17.50;10.57;;;;;;;0.28;85.32;101745.47;5034976;28;20056;-80
2022/04/04 01:03:06;;;;;;;17.73;10.97;;;;;;;0.44;85.32;101763.75;5034815;28;20766;-85
2022/04/04 01:05:31;;;;;;;16.93;10.60;;;;;;;0.31;85.17;101745.25;5036638;28;20323;-85
2022/04/04 01:07:56;;;;;;;17.53;10.97;;;;;;;0.31;85.06;101728.38;5035015;28;20033;-84
2022/04/04 01:10:22;;;;;;;15.93;10.80;;;;;;;0.26;85.18;101726.09;5036671;28;20377;-85
2022/04/04 01:12:52;;;;;;;15.40;11.10;;;;;;;0.27;84.95;101721.59;5036896;28;20478;-84
2022/04/04 01:15:19;;;;;;;14.37;10.40;;;;;;;0.41;85.15;101745.34;5035859;28;20133;-84
2022/04/04 01:17:45;;;;;;;17.93;11.00;;;;;;;0.34;84.83;101722.84;5036364;28;20390;-83
2022/04/04 01:20:11;;;;;;;17.37;11.10;;;;;;;0.26;84.33;101706.56;5036179;28;20796;-83
2022/04/04 01:22:37;;;;;;;18.50;11.03;;;;;;;0.25;84.85;101702.25;5034907;28;20718;-81
2022/04/04 01:25:05;;;;;;;15.87;9.87;;;;;;;0.24;84.22;101704.03;5036546;28;20056;-85
2022/04/04 01:27:31;;;;;;;17.07;10.70;;;;;;;0.53;84.32;101734.66;5034689;28;20036;-81
2022/04/04 01:29:56;;;;;;;19.30;10.07;;;;;;;0.28;83.76;101693.97;5035954;28;20290;-82
2022/04/04 01:32:21;;;;;;;16.00;10.40;;;;;;;0.27;83.94;101687.81;5051143;28;20770;-82
2022/04/04 01:34:47;;;;;;;17.50;10.93;;;;;;;0.41;83.70;101704.50;5035966;28;20053;-81
2022/04/04 01:37:12;;;;;;;18.17;10.97;;;;;;;0.31;83.46;101683.06;5034794;28;21565;-81
2022/04/04 01:39:38;;;;;;;15.47;10.47;;;;;;;0.43;83.29;101698.06;5036048;28;20078;-81
2022/04/04 01:42:04;;;;;;;15.03;10.07;;;;;;;0.31;83.22;101672.41;5034751;28;20171;-82
2022/04/04 01:44:29;;;;;;;15.47;10.00;;;;;;;0.33;82.55;101654.47;5035796;28;20700;-85
2022/04/04 01:46:55;;;;;;;14.63;10.10;;;;;;;0.38;82.60;101670.09;5037050;28;20291;-84
2022/04/04 01:49:20;;;;;;;15.23;10.00;;;;;;;0.29;82.48;101643.22;5036124;28;20044;-82
2022/04/04 01:51:46;;;;;;;16.30;10.00;;;;;;;0.38;82.04;101652.28;5037335;28;20456;-81
2022/04/04 01:54:11;;;;;;;15.30;9.93;;;;;;;0.47;82.02;101662.19;5036123;28;20069;-81
2022/04/04 01:56:37;;;;;;;14.93;9.87;;;;;;;0.56;81.15;101660.59;5036173;28;20396;-82
2022/04/04 01:59:02;;;;;;;16.87;9.43;;;;;;;0.56;81.36;101657.94;5037839;28;20056;-87
2022/04/04 02:01:28;;;;;;;14.73;9.40;;;;;;;0.43;80.93;101635.91;5039694;28;20037;-87
2022/04/04 02:03:56;;;;;;;13.90;9.17;;;;;;;0.46;80.80;101623.19;5039888;28;20048;-84
2022/04/04 02:06:22;;;;;;;17.73;10.00;;;;;;;0.43;80.61;101617.25;5055148;28;20037;-82
2022/04/04 02:08:49;;;;;;;14.03;9.07;;;;;;;0.53;80.56;101617.31;5039411;28;20642;-85
2022/04/04 02:11:16;;;;;;;16.30;10.13;;;;;;;0.43;80.75;101599.41;5037963;28;20765;-84
2022/04/04 02:13:42;;;;;;;15.07;9.73;;;;;;;0.63;80.27;101634.28;5038281;28;20984;-85
2022/04/04 02:16:08;;;;;;;15.50;9.40;;;;;;;0.48;80.03;101605.22;5039478;28;20303;-82
2022/04/04 02:18:34;;;;;;;14.83;9.57;;;;;;;0.48;80.55;101594.56;5039481;28;20747;-83
2022/04/04 02:21:00;;;;;;;12.53;9.13;;;;;;;0.55;79.67;101594.06;5039556;28;20041;-82
2022/04/04 02:23:26;;;;;;;15.87;9.83;;;;;;;0.61;79.93;101598.88;5039119;28;20306;-87
2022/04/04 02:25:55;;;;;;;16.53;9.87;;;;;;;0.67;79.89;101609.03;5039383;28;20087;-86
2022/04/04 02:28:21;;;;;;;17.77;10.10;;;;;;;0.55;80.06;101573.56;5038895;28;20123;-86
2022/04/04 02:30:49;;;;;;;16.67;9.50;;;;;;;0.70;79.75;101592.75;5036639;28;20388;-87
2022/04/04 02:33:15;;;;;;;15.87;10.13;;;;;;;0.77;79.89;101590.44;5038901;28;20299;-86
2022/04/04 02:35:40;;;;;;;15.70;9.50;;;;;;;0.78;79.76;101590.28;5038938;28;20428;-88
2022/04/04 02:38:07;;;;;;;15.07;9.83;;;;;;;0.71;79.67;101573.13;5038750;28;20302;-84
2022/04/04 02:40:33;;;;;;;13.47;9.07;;;;;;;0.69;79.72;101559.06;5038782;28;21456;-83
2022/04/04 02:43:00;;;;;;;13.43;9.00;;;;;;;0.73;79.81;101555.16;5038888;28;20389;-86
2022/04/04 02:45:26;;;;;;;15.67;9.87;;;;;;;0.73;79.68;101546.31;5038314;28;20045;-82
2022/04/04 02:47:51;;;;;;;14.07;9.40;;;;;;;0.81;79.60;101551.84;5038926;28;20829;-84
2022/04/04 02:50:17;;;;;;;16.27;9.40;;;;;;;0.78;79.66;101536.94;5020494;28;20506;-83
2022/04/04 02:52:43;;;;;;;14.00;9.47;;;;;;;0.90;79.50;101551.06;5038525;28;20706;-82
2022/04/04 02:57:54;;;;;;;14.70;8.82;;;;;;;0.78;79.73;101510.25;5039559;28;20051;-86
2022/04/04 03:00:20;;;;;;;14.07;8.83;;;;;;;0.86;79.73;101514.09;5038553;28;20029;-82
2022/04/04 03:02:46;;;;;;;13.73;8.73;;;;;;;0.91;79.66;101517.22;5038206;28;20663;-83
2022/04/04 03:05:12;;;;;;;14.40;8.87;;;;;;;1.00;79.94;101527.09;5036998;28;20132;-84
2022/04/04 03:07:38;;;;;;;12.83;8.47;;;;;;;0.88;79.90;101491.63;5038961;28;20291;-87
2022/04/04 03:10:04;;;;;;;13.87;8.60;;;;;;;1.11;79.83;101527.00;5036890;28;20393;-86
2022/04/04 03:12:30;;;;;;;17.77;9.23;;;;;;;0.95;80.50;101508.84;5038099;28;20032;-81
2022/04/04 03:14:55;;;;;;;14.40;9.10;;;;;;;0.91;80.20;101478.06;5037122;28;20036;-82
2022/04/04 03:17:21;;;;;;;13.63;8.63;;;;;;;1.01;79.97;101500.28;5020447;28;20048;-81
2022/04/04 03:19:47;;;;;;;13.23;8.87;;;;;;;0.91;79.89;101466.53;5036726;28;20160;-82
2022/04/04 03:22:13;;;;;;;11.50;7.90;;;;;;;0.89;80.11;101466.66;5038859;28;20044;-82
2022/04/04 03:24:38;;;;;;;12.43;8.43;;;;;;;0.93;80.16;101465.41;5038538;28;20291;-86
2022/04/04 03:27:04;;;;;;;13.40;8.10;;;;;;;1.03;80.46;101473.44;5053014;28;20041;-84
2022/04/04 03:29:29;;;;;;;14.20;8.63;;;;;;;1.22;80.47;101496.72;5037941;28;20423;-85
2022/04/04 03:31:55;;;;;;;12.40;8.37;;;;;;;1.04;80.40;101464.47;5038416;28;20124;-85
2022/04/04 03:34:22;;;;;;;14.97;9.20;;;;;;;1.04;80.72;101464.47;5037923;28;20441;-86
2022/04/04 03:36:47;;;;;;;13.77;8.60;;;;;;;1.05;80.63;101458.16;5038346;28;20297;-81
2022/04/04 03:39:16;;;;;;;14.77;8.87;;;;;;;1.16;80.54;101466.06;5037873;28;20695;-81
2022/04/04 03:41:43;;;;;;;13.90;8.40;;;;;;;1.07;80.59;101445.50;5037882;28;20194;-81
2022/04/04 03:44:09;;;;;;;12.73;8.57;;;;;;;1.19;80.49;101451.59;5038019;28;20302;-86
2022/04/04 03:46:34;;;;;;;13.87;8.60;;;;;;;1.16;80.73;101442.03;5037621;28;20507;-86
2022/04/04 03:49:00;;;;;;;12.57;8.27;;;;;;;1.24;80.79;101445.84;5038251;28;20079;-86
2022/04/04 03:51:25;;;;;;;18.93;8.93;;;;;;;1.20;80.56;101437.28;5034826;28;20037;-85
2022/04/04 03:53:50;;;;;;;14.60;8.57;;;;;;;1.17;80.35;101419.72;5037961;28;20033;-86
2022/04/04 03:56:16;;;;;;;13.67;8.40;;;;;;;1.36;80.64;101450.13;5037679;28;20032;-85
2022/04/04 03:58:41;;;;;;;13.40;8.50;;;;;;;1.25;80.34;101410.16;5052710;28;20025;-84
2022/04/04 04:01:07;;;;;;;14.90;8.00;;;;;;;1.21;80.08;101408.75;5052558;28;20056;-86
2022/04/04 04:03:34;;;;;;;16.23;8.80;;;;;;;1.44;80.28;101439.59;5037579;28;20033;-83
2022/04/04 04:06:20;;;;;;;14.40;8.73;;;;;;;1.20;80.47;101399.06;5051534;28;21404;-82
2022/04/04 04:08:46;;;;;;;12.77;8.10;;;;;;;1.37;80.24;101414.41;5036806;28;20325;-83
2022/04/04 04:11:16;;;;;;;14.63;8.63;;;;;;;1.29;80.46;101390.22;5035519;28;20287;-82
2022/04/04 04:13:44;;;;;;;14.47;8.93;;;;;;;1.31;80.29;101388.28;5035529;28;20330;-88
2022/04/04 04:16:09;;;;;;;14.50;8.40;;;;;;;1.46;80.13;101404.75;5036990;28;20290;-85
2022/04/04 04:18:38;;;;;;;13.47;7.80;;;;;;;1.41;80.44;101388.28;5035698;28;20639;-85
2022/04/04 04:21:05;;;;;;;13.33;8.10;;;;;;;1.44;80.59;101394.22;5036197;28;20040;-86
2022/04/04 04:23:30;;;;;;;14.53;8.90;;;;;;;1.41;80.21;101369.59;5037151;28;20856;-81
2022/04/04 04:25:56;;;;;;;12.47;8.50;;;;;;;1.35;81.03;101361.16;5036449;28;20291;-81
2022/04/04 04:28:21;;;;;;;15.37;8.77;;;;;;;1.35;80.67;101353.16;5035207;28;21456;-84
2022/04/04 04:30:47;;;;;;;15.23;9.57;;;;;;;1.47;80.19;101345.00;5036248;28;20095;-81
2022/04/04 04:33:13;;;;;;;14.23;8.97;;;;;;;1.63;80.43;101368.47;5035423;28;20404;-82
2022/04/04 04:35:38;;;;;;;14.43;9.30;;;;;;;1.49;80.48;101335.03;5036967;28;20052;-82
2022/04/04 04:38:04;;;;;;;15.07;8.57;;;;;;;1.60;80.15;101345.56;5034259;28;20098;-81
2022/04/04 04:40:29;;;;;;;15.97;8.97;;;;;;;1.58;80.10;101330.66;5035419;28;20041;-86
2022/04/04 04:42:56;;;;;;;15.10;9.00;;;;;;;1.71;80.15;101331.22;5034068;28;20048;-85
2022/04/04 04:45:22;;;;;;;14.90;9.03;;;;;;;1.70;79.99;101321.53;5036235;28;20090;-81
2022/04/04 04:47:49;;;;;;;13.97;8.80;;;;;;;1.76;79.85;101336.16;5036908;28;20291;-81
2022/04/04 04:50:16;;;;;;;15.23;9.23;;;;;;;1.73;79.71;101329.25;5036211;28;20052;-85
2022/04/04 04:52:44;;;;;;;16.57;9.30;;;;;;;1.68;79.68;101313.63;5037279;28;20310;-82
2022/04/04 04:55:10;;;;;;;14.63;8.83;;;;;;;1.74;79.94;101306.91;5036014;28;20773;-86
2022/04/04 04:57:37;;;;;;;16.37;9.47;;;;;;;1.91;79.92;101332.03;5035579;28;20295;-82
2022/04/04 05:00:05;;;;;;;16.33;9.60;;;;;;;1.95;79.84;101319.25;5034907;28;20306;-82
2022/04/04 05:02:31;;;;;;;14.70;9.47;;;;;;;1.93;79.51;101313.19;5036372;28;20307;-86
2022/04/04 05:04:57;;;;;;;16.03;9.80;;;;;;;1.92;79.78;101301.66;5035074;28;20302;-86
2022/04/04 05:07:23;;;;;;;14.23;9.23;;;;;;;1.88;79.41;101288.72;5035326;28;20111;-86
2022/04/04 05:09:48;;;;;;;15.90;8.70;;;;;;;1.96;79.37;101292.38;5036467;28;20029;-82
2022/04/04 05:12:14;;;;;;;14.77;9.57;;;;;;;1.98;79.53;101282.38;5036552;28;20331;-81
2022/04/04 05:14:40;;;;;;;16.93;9.37;;;;;;;2.10;79.58;101291.06;5035791;28;20036;-83
2022/04/04 05:17:06;;;;;;;17.80;9.77;;;;;;;2.22;79.44;101285.53;5035778;28;20465;-85
2022/04/04 05:19:31;;;;;;;15.23;9.47;;;;;;;2.11;79.02;101271.38;5036603;28;20053;-81
2022/04/04 05:21:57;;;;;;;15.93;9.40;;;;;;;2.08;79.49;101258.31;5036292;28;20045;-89
2022/04/04 05:24:22;;;;;;;13.13;9.37;;;;;;;2.18;79.04;101267.13;5036532;28;20071;-86
2022/04/04 05:26:48;;;;;;;17.00;9.67;;;;;;;2.21;79.35;101257.13;5035041;28;20519;-86
2022/04/04 05:29:17;;;;;;;16.80;10.27;;;;;;;2.19;78.84;101243.91;5036845;28;20385;-85
2022/04/04 05:31:43;;;;;;;15.53;9.43;;;;;;;2.23;79.30;101245.31;5036474;28;20520;-84
2022/04/04 05:34:09;;;;;;;15.23;9.93;;;;;;;2.35;79.03;101243.25;5038036;28;20341;-82
2022/04/04 05:36:34;;;;;;;17.67;10.03;;;;;;;2.50;79.35;101263.19;5039779;28;20163;-83
2022/04/04 05:39:00;;;;;;;14.67;9.87;;;;;;;2.31;79.11;101223.16;5038549;28;20029;-82
2022/04/04 05:41:27;;;;;;;15.00;9.87;;;;;;;2.48;79.32;101242.94;5037326;28;20052;-81
2022/04/04 05:43:54;;;;;;;15.30;10.53;;;;;;;2.46;79.10;101237.75;5040522;28;20033;-84
2022/04/04 05:46:19;;;;;;;15.03;10.00;;;;;;;2.39;79.00;101209.88;5038194;28;20125;-81
2022/04/04 05:48:45;;;;;;;15.00;10.50;;;;;;;2.51;79.33;101224.72;5040145;28;20033;-81
2022/04/04 05:51:13;;;;;;;18.43;10.57;;;;;;;2.43;79.35;101195.22;5039582;28;20946;-81
2022/04/04 05:53:39;;;;;;;17.33;10.93;;;;;;;2.58;79.41;101205.41;5039704;28;20175;-83
2022/04/04 05:56:04;;;;;;;17.50;11.53;;;;;;;2.59;78.85;101199.09;5038537;28;20061;-82
2022/04/04 05:58:30;;;;;;;18.23;11.60;;;;;;;2.67;78.62;101210.72;5039538;28;20045;-81
2022/04/04 06:00:56;;;;;;;17.30;11.20;;;;;;;2.71;78.67;101211.25;5039907;28;20039;-82
2022/04/04 06:03:21;;;;;;;22.57;11.83;;;;;;;2.67;78.59;101204.53;5039065;28;20602;-80
2022/04/04 06:05:49;;;;;;;18.33;11.47;;;;;;;2.66;78.17;101179.59;5039868;28;20037;-81
2022/04/04 06:08:19;;;;;;;18.37;11.40;;;;;;;2.71;78.27;101184.50;5038114;28;20355;-83
2022/04/04 06:10:45;;;;;;;17.93;11.40;;;;;;;2.73;77.54;101193.19;5039079;28;20134;-86
2022/04/04 06:13:15;;;;;;;17.03;10.77;;;;;;;2.80;77.13;101178.25;5039721;28;20028;-87
2022/04/04 06:15:40;;;;;;;17.57;10.70;;;;;;;2.87;77.57;101179.31;5038871;28;21338;-85
2022/04/04 06:18:07;;;;;;;17.33;11.03;;;;;;;3.05;77.22;101197.19;5038937;28;20047;-81
2022/04/04 06:20:32;;;;;;;16.83;11.17;;;;;;;3.12;76.91;101206.28;5053116;28;20043;-82
2022/04/04 06:22:58;;;;;;;14.77;10.20;;;;;;;3.06;75.83;101165.91;5040848;28;20295;-85
2022/04/04 06:25:24;;;;;;;16.73;10.93;;;;;;;3.11;75.49;101156.41;5044381;28;20083;-82
2022/04/04 06:27:50;;;;;;;16.30;10.50;;;;;;;3.27;74.10;101147.66;5051918;28;20115;-79
2022/04/04 06:30:15;;;;;;;16.47;10.87;;;;;;;3.40;74.51;101174.03;5051791;28;20033;-81
2022/04/04 06:32:43;;;;;;;16.30;10.27;;;;;;;3.35;73.74;101149.56;5047800;28;20025;-80
2022/04/04 06:35:10;;;;;;;16.27;9.87;;;;;;;3.53;73.29;101179.81;5048059;28;20029;-85
2022/04/04 06:37:36;;;;;;;14.77;9.87;;;;;;;3.53;73.03;101152.19;5037645;28;20044;-82
2022/04/04 06:40:05;;;;;;;14.67;9.97;;;;;;;3.63;72.52;101155.59;5047478;28;20021;-81
2022/04/04 06:42:38;;;;;;;16.87;10.00;;;;;;;3.62;72.68;101142.34;5053081;28;20036;-82
2022/04/04 06:45:06;;;;;;;16.40;9.80;;;;;;;3.55;72.41;101118.88;5052763;28;20049;-81
2022/04/04 06:47:32;;;;;;;15.33;9.23;;;;;;;3.55;72.56;101102.81;5056203;28;20033;-81
2022/04/04 06:49:59;;;;;;;15.07;10.27;;;;;;;3.77;72.53;101137.22;5055986;28;20052;-81
2022/04/04 06:52:25;;;;;;;16.07;9.60;;;;;;;3.62;72.41;101115.53;5056094;28;20029;-80
2022/04/04 06:54:52;;;;;;;14.13;9.70;;;;;;;3.63;72.72;101109.19;5054803;28;20021;-81
2022/04/04 06:57:18;;;;;;;16.10;10.13;;;;;;;3.82;73.30;101134.91;5038393;28;20036;-81
2022/04/04 06:59:43;;;;;;;16.07;10.53;;;;;;;3.62;73.22;101086.06;5055609;28;20025;-82
2022/04/04 07:02:12;;;;;;;15.00;9.57;;;;;;;3.76;72.48;101114.13;5031079;28;20523;-87
2022/04/04 07:04:37;;;;;;;15.30;10.07;;;;;;;3.71;72.90;101088.66;5042450;28;20051;-81
2022/04/04 07:07:04;;;;;;;16.63;10.40;;;;;;;3.86;73.52;101101.44;5043860;28;20060;-82
2022/04/04 07:09:30;;;;;;;16.30;9.40;;;;;;;3.92;72.36;101087.38;5041014;28;20043;-86
2022/04/04 07:11:55;;;;;;;16.93;10.40;;;;;;;4.03;71.48;101088.94;5042425;28;20033;-82
2022/04/04 07:14:21;;;;;;;15.57;9.63;;;;;;;3.97;71.88;101068.97;5041670;28;20037;-83
2022/04/04 07:16:48;;;;;;;16.00;9.47;;;;;;;4.06;71.73;101089.44;5039280;28;20045;-83
2022/04/04 07:19:16;;;;;;;13.27;8.87;;;;;;;4.06;71.45;101072.50;5042218;28;20055;-79
2022/04/04 07:21:42;;;;;;;15.00;9.40;;;;;;;4.10;71.25;101059.63;5031892;28;20040;-79
2022/04/04 07:24:08;;;;;;;16.57;9.57;;;;;;;4.09;71.64;101052.56;5044703;28;20532;-81
2022/04/04 07:26:33;;;;;;;14.27;8.80;;;;;;;4.17;70.89;101057.97;5043638;28;20100;-80
2022/04/04 07:28:59;;;;;;;16.87;9.53;;;;;;;4.36;71.74;101067.53;5042473;28;20134;-87
2022/04/04 07:31:24;;;;;;;16.03;9.57;;;;;;;4.28;71.60;101059.50;5055922;28;20350;-85
2022/04/04 07:33:52;;;;;;;14.93;9.53;;;;;;;4.29;70.67;101043.22;5042356;28;20123;-81
2022/04/04 07:36:17;;;;;;;12.80;9.50;;;;;;;4.40;70.43;101048.25;5034891;28;20384;-86
2022/04/04 07:38:43;;;;;;;13.57;9.20;;;;;;;4.41;71.09;101046.44;5033941;28;20041;-84
2022/04/04 07:41:08;;;;;;;13.07;9.07;;;;;;;4.51;70.54;101048.94;5033415;28;20040;-85
2022/04/04 07:43:34;;;;;;;15.03;9.27;;;;;;;4.47;70.09;101026.97;5032197;28;20045;-86
2022/04/04 07:45:59;;;;;;;13.23;9.00;;;;;;;4.56;70.40;101035.88;5035257;28;20025;-81
2022/04/04 07:48:25;;;;;;;14.97;8.90;;;;;;;4.66;70.02;101049.94;5035321;28;20083;-84
2022/04/04 07:50:51;;;;;;;14.60;9.00;;;;;;;4.49;70.80;101008.88;5030885;28;20055;-84
2022/04/04 07:53:17;;;;;;;14.83;9.57;;;;;;;4.58;70.72;101012.38;5033658;28;20033;-82
2022/04/04 07:55:43;;;;;;;14.73;8.87;;;;;;;4.69;69.80;101019.25;5032454;28;20047;-82
2022/04/04 07:58:08;;;;;;;15.67;9.20;;;;;;;4.67;70.56;101006.00;5036513;28;20041;-82
2022/04/04 08:00:34;;;;;;;14.00;9.23;;;;;;;4.69;70.15;100984.34;5036314;28;20032;-84
2022/04/04 08:02:59;;;;;;;14.50;9.50;;;;;;;4.81;70.18;100993.72;5036257;28;20101;-84
2022/04/04 08:05:26;;;;;;;15.60;9.40;;;;;;;4.78;69.60;100969.09;5037025;28;20041;-83
2022/04/04 08:07:52;;;;;;;17.90;9.50;;;;;;;4.95;70.04;100976.09;5036414;28;20044;-84
2022/04/04 08:10:18;;;;;;;17.73;9.87;;;;;;;4.96;69.05;100998.41;5036326;28;20079;-88
2022/04/04 08:12:44;;;;;;;14.33;9.40;;;;;;;5.06;69.39;100988.34;5036349;28;20452;-84
2022/04/04 08:15:10;;;;;;;14.40;9.07;;;;;;;5.04;68.90;100945.50;5008956;28;20058;-82
2022/04/04 08:17:36;;;;;;;17.13;9.50;;;;;;;5.15;68.86;100963.09;5034496;28;20501;-84
2022/04/04 08:20:03;;;;;;;13.87;9.30;;;;;;;5.21;68.49;100966.97;5034763;28;20393;-84
2022/04/04 08:22:28;;;;;;;14.40;8.83;;;;;;;5.30;67.92;100962.38;5034549;28;20893;-80
2022/04/04 08:24:54;;;;;;;13.93;8.47;;;;;;;5.28;67.90;100948.31;5009715;28;20056;-81
2022/04/04 08:27:22;;;;;;;15.73;9.10;;;;;;;5.41;67.27;100953.94;5034480;28;20045;-80
2022/04/04 08:29:47;;;;;;;12.93;7.97;;;;;;;5.39;67.09;100921.03;5036683;28;20041;-84
2022/04/04 08:32:19;;;;;;;12.53;8.33;;;;;;;5.58;66.97;100971.66;5035826;28;20099;-81
2022/04/04 08:34:45;;;;;;;13.43;8.37;;;;;;;5.66;65.62;100937.69;5036295;28;20421;-87
2022/04/04 08:37:11;;;;;;;13.63;8.27;;;;;;;5.69;65.33;100931.97;5035595;28;20039;-82
2022/04/04 08:39:36;;;;;;;13.53;8.23;;;;;;;5.81;65.13;100954.75;5052001;28;20045;-81
2022/04/04 08:42:03;;;;;;;16.97;8.43;;;;;;;5.66;66.02;100883.94;5036176;28;20037;-82
2022/04/04 08:44:28;;;;;;;13.13;8.57;;;;;;;5.74;65.18;100911.59;5051394;28;20067;-83
2022/04/04 08:46:54;;;;;;;14.23;8.37;;;;;;;5.96;65.66;100943.22;5036139;28;20064;-84
2022/04/04 08:49:20;;;;;;;14.53;8.20;;;;;;;5.75;66.02;100897.13;5034819;28;20036;-88
2022/04/04 08:51:48;;;;;;;14.10;8.53;;;;;;;5.73;65.46;100898.34;5035677;28;20383;-86
2022/04/04 08:54:13;;;;;;;14.43;8.70;;;;;;;5.69;65.38;100865.56;5036109;28;20036;-83
2022/04/04 08:56:38;;;;;;;16.70;8.63;;;;;;;5.76;65.27;100903.34;5037019;28;20051;-83
2022/04/04 08:59:04;;;;;;;13.87;7.73;;;;;;;5.72;65.58;100907.41;5051006;28;20052;-85
2022/04/04 09:01:29;;;;;;;18.30;8.80;;;;;;;5.75;66.33;100896.28;5033293;28;20033;-84
2022/04/04 09:04:01;;;;;;;17.87;9.50;;;;;;;5.88;66.84;100936.88;5035826;28;20353;-84
2022/04/04 09:06:30;;;;;;;17.80;9.83;;;;;;;5.85;67.60;100922.97;5051457;28;20037;-83
2022/04/04 09:08:57;;;;;;;16.23;8.33;;;;;;;5.63;67.30;100874.38;5035657;28;20075;-83
2022/04/04 09:11:23;;;;;;;15.87;9.00;;;;;;;5.69;68.06;100883.56;5035978;28;20147;-81
2022/04/04 09:14:07;;;;;;;16.23;9.47;;;;;;;5.56;68.72;100873.41;5032611;28;20040;-83
2022/04/04 09:16:33;;;;;;;11.43;7.43;;;;;;;5.65;68.51;100876.88;5034235;28;20089;-86
2022/04/04 09:18:59;;;;;;;17.37;10.20;;;;;;;5.55;70.07;100886.00;5028726;28;20485;-82
2022/04/04 09:21:29;;;;;;;15.57;9.63;;;;;;;5.45;69.42;100861.19;5032714;28;20040;-84
2022/04/04 09:23:58;;;;;;;15.60;10.33;;;;;;;5.40;69.95;100866.28;5033854;28;20037;-84
2022/04/04 09:26:37;;;;;;;15.97;9.83;;;;;;;5.61;70.48;100889.00;5034006;28;20708;-84
2022/04/04 09:29:16;;;;;;;17.47;9.90;;;;;;;5.35;70.96;100831.88;5033775;28;20040;-83
2022/04/04 09:31:58;;;;;;;14.63;8.90;;;;;;;5.48;71.17;100854.63;5034639;28;20029;-85
2022/04/04 09:34:24;;;;;;;17.57;10.60;;;;;;;5.50;72.84;100872.25;5034187;28;20032;-83
2022/04/04 09:36:49;;;;;;;16.97;10.73;;;;;;;5.32;72.73;100844.84;5033375;28;20075;-79
2022/04/04 09:39:16;;;;;;;14.97;9.50;;;;;;;5.49;72.32;100865.19;5033954;28;20748;-81
2022/04/04 09:41:42;;;;;;;17.93;10.80;;;;;;;5.31;73.30;100844.00;5034648;28;20029;-86
2022/04/04 09:44:09;;;;;;;15.40;10.80;;;;;;;5.36;73.78;100864.97;5047725;28;20064;-84
2022/04/04 09:46:39;;;;;;;16.93;10.37;;;;;;;5.26;74.78;100848.22;5032384;28;20611;-82
2022/04/04 09:49:13;;;;;;;16.20;10.87;;;;;;;5.13;74.83;100840.75;5030098;28;20045;-83
2022/04/04 09:51:46;;;;;;;17.23;10.87;;;;;;;5.29;75.24;100853.25;5032027;28;20469;-84
2022/04/04 09:54:29;;;;;;;17.13;11.03;;;;;;;5.30;75.57;100850.38;5031631;28;20765;-81
2022/04/04 09:57:15;;;;;;;16.23;10.80;;;;;;;5.24;75.87;100849.25;5031922;28;20366;-82
2022/04/04 09:59:42;;;;;;;16.53;11.17;;;;;;;5.17;75.75;100824.09;5031643;28;20528;-84
2022/04/04 10:02:12;;;;;;;18.80;11.77;;;;;;;5.22;77.13;100837.00;5005106;28;20523;-85
2022/04/04 10:04:38;;;;;;;17.03;11.47;;;;;;;5.08;77.17;100836.72;5029560;28;20043;-85
2022/04/04 10:07:08;;;;;;;19.43;11.50;;;;;;;5.04;77.68;100813.91;5030190;28;20021;-83
2022/04/04 10:09:35;;;;;;;17.67;11.67;;;;;;;5.24;78.59;100849.25;5031916;28;20487;-84
2022/04/04 10:12:02;;;;;;;19.47;12.43;;;;;;;5.08;79.87;100831.34;5031455;28;20578;-82
2022/04/04 10:14:30;;;;;;;19.40;12.87;;;;;;;5.08;79.73;100811.72;5031637;28;20047;-84
2022/04/04 10:16:56;;;;;;;18.10;11.00;;;;;;;5.01;78.75;100797.34;5047132;28;20041;-83
2022/04/04 10:19:25;;;;;;;18.83;12.70;;;;;;;4.99;80.18;100792.16;5031982;28;20104;-84
2022/04/04 10:21:50;;;;;;;16.43;11.97;;;;;;;5.02;79.17;100805.22;5035565;28;20037;-84
2022/04/04 10:24:17;;;;;;;17.33;11.50;;;;;;;5.23;79.63;100801.88;5034712;28;20033;-84
2022/04/04 10:26:47;;;;;;;21.10;12.37;;;;;;;5.10;80.67;100790.91;5050624;28;20037;-82
2022/04/04 10:29:22;;;;;;;17.87;11.70;;;;;;;5.22;80.41;100777.91;5035177;28;20036;-85
2022/04/04 10:31:49;;;;;;;;;;;;;;;5.40;80.88;100828.69;5035999;28;20033;-87
2022/04/04 10:34:21;;;;;;;16.80;13.10;;;;;;;5.30;81.38;100815.44;5035247;28;19924;-83
2022/04/04 10:36:55;;;;;;;18.60;13.20;;;;;;;5.07;83.16;100802.00;5015014;28;20029;-82
2022/04/04 10:39:44;;;;;;;21.02;13.70;;;;;;;5.11;82.59;100789.06;5037492;28;20120;-83
2022/04/04 10:42:31;;;;;;;20.40;13.13;;;;;;;5.29;83.84;100823.69;5038197;28;20055;-86
2022/04/04 10:45:08;;;;;;;20.97;13.50;;;;;;;5.02;84.65;100788.28;5038547;28;21572;-83
2022/04/04 10:47:36;;;;;;;20.93;13.77;;;;;;;4.98;84.79;100784.28;5035974;28;20036;-83
2022/04/04 10:50:22;;;;;;;19.70;13.73;;;;;;;5.07;85.49;100792.09;5052874;28;20598;-82
2022/04/04 10:52:48;;;;;;;17.87;13.40;;;;;;;4.94;85.86;100785.63;5038488;28;20124;-84
2022/04/04 10:55:39;;;;;;;20.07;13.60;;;;;;;5.20;86.79;100802.25;5037364;28;20033;-91
2022/04/04 10:58:07;;;;;;;17.87;11.73;;;;;;;5.17;86.20;100789.19;5038255;28;20104;-82
2022/04/04 11:00:34;;;;;;;19.07;14.17;;;;;;;4.92;87.18;100755.44;5038848;28;20044;-82
2022/04/04 11:03:04;;;;;;;20.40;14.97;;;;;;;4.88;88.34;100774.59;5036756;28;20742;-85
2022/04/04 11:08:32;;;;;;;19.87;15.07;;;;;;;4.81;89.29;100757.50;5038098;28;20177;-82
2022/04/04 11:10:58;;;;;;;19.33;13.00;;;;;;;4.75;89.08;100739.44;5038706;28;20037;-85
2022/04/04 11:13:24;;;;;;;18.50;13.90;;;;;;;4.89;89.72;100754.75;5036302;28;20040;-90
2022/04/04 11:15:55;;;;;;;17.83;13.90;;;;;;;4.76;90.15;100762.56;5037149;28;20037;-90
2022/04/04 11:18:21;;;;;;;20.23;13.50;;;;;;;4.68;90.44;100746.50;5037608;28;20057;-89
2022/04/04 11:20:50;;;;;;;18.17;12.50;;;;;;;4.90;90.02;100764.50;5038277;28;20032;-87
2022/04/04 11:23:16;;;;;;;18.80;12.83;;;;;;;4.79;91.52;100745.28;5037295;28;20081;-87
2022/04/04 11:25:53;;;;;;;16.47;12.70;;;;;;;4.71;91.82;100749.66;5038779;28;20098;-85
2022/04/04 11:28:22;;;;;;;17.80;12.33;;;;;;;4.94;91.16;100770.34;5020331;28;20044;-88